sensor_id;sensor_type;location;lat;lon;timestamp;P1;durP1;ratioP1;P2;durP2;ratioP2
55007;SDS011;40902;45.116;21.296;2023-12-29T00:01:58;41.55;;;29.70;;
55007;SDS011;40902;45.116;21.296;2023-12-29T00:04:25;41.90;;;26.98;;
55007;SDS011;40902;45.116;21.296;2023-12-29T00:06:51;41.70;;;27.08;;
55007;SDS011;40902;45.116;21.296;2023-12-29T00:09:17;37.38;;;26.40;;
55007;SDS011;40902;45.116;21.296;2023-12-29T00:11:46;41.20;;;28.05;;
55007;SDS011;40902;45.116;21.296;2023-12-29T00:14:12;39.38;;;27.20;;
55007;SDS011;40902;45.116;21.296;2023-12-29T00:16:38;34.72;;;25.38;;
55007;SDS011;40902;45.116;21.296;2023-12-29T00:19:03;37.67;;;25.60;;
55007;SDS011;40902;45.116;21.296;2023-12-29T00:21:29;31.75;;;23.52;;
55007;SDS011;40902;45.116;21.296;2023-12-29T00:23:55;29.17;;;20.35;;
55007;SDS011;40902;45.116;21.296;2023-12-29T00:26:21;27.27;;;18.70;;
55007;SDS011;40902;45.116;21.296;2023-12-29T00:28:47;27.05;;;17.73;;
55007;SDS011;40902;45.116;21.296;2023-12-29T00:31:14;27.35;;;16.63;;
55007;SDS011;40902;45.116;21.296;2023-12-29T00:33:43;29.85;;;17.30;;
55007;SDS011;40902;45.116;21.296;2023-12-29T00:36:15;23.45;;;16.15;;
55007;SDS011;40902;45.116;21.296;2023-12-29T00:38:41;25.70;;;16.85;;
55007;SDS011;40902;45.116;21.296;2023-12-29T00:41:07;22.20;;;15.88;;
55007;SDS011;40902;45.116;21.296;2023-12-29T00:43:33;26.60;;;17.63;;
55007;SDS011;40902;45.116;21.296;2023-12-29T00:46:01;30.83;;;20.05;;
55007;SDS011;40902;45.116;21.296;2023-12-29T00:48:27;27.90;;;19.90;;
55007;SDS011;40902;45.116;21.296;2023-12-29T00:50:52;26.85;;;18.75;;
55007;SDS011;40902;45.116;21.296;2023-12-29T00:53:18;24.15;;;17.67;;
55007;SDS011;40902;45.116;21.296;2023-12-29T00:55:44;25.95;;;18.35;;
55007;SDS011;40902;45.116;21.296;2023-12-29T00:58:10;23.05;;;17.23;;
55007;SDS011;40902;45.116;21.296;2023-12-29T01:00:35;23.90;;;16.70;;
55007;SDS011;40902;45.116;21.296;2023-12-29T01:03:01;23.23;;;16.60;;
55007;SDS011;40902;45.116;21.296;2023-12-29T01:05:27;23.58;;;16.33;;
55007;SDS011;40902;45.116;21.296;2023-12-29T01:07:53;24.95;;;17.85;;
55007;SDS011;40902;45.116;21.296;2023-12-29T01:10:19;26.20;;;17.98;;
55007;SDS011;40902;45.116;21.296;2023-12-29T01:12:45;23.80;;;17.30;;
55007;SDS011;40902;45.116;21.296;2023-12-29T01:15:10;25.42;;;18.30;;
55007;SDS011;40902;45.116;21.296;2023-12-29T01:17:36;23.88;;;17.05;;
55007;SDS011;40902;45.116;21.296;2023-12-29T01:20:02;27.92;;;18.98;;
55007;SDS011;40902;45.116;21.296;2023-12-29T01:22:29;25.55;;;18.35;;
55007;SDS011;40902;45.116;21.296;2023-12-29T01:24:55;28.73;;;18.80;;
55007;SDS011;40902;45.116;21.296;2023-12-29T01:27:21;24.60;;;18.17;;
55007;SDS011;40902;45.116;21.296;2023-12-29T01:29:46;26.50;;;17.63;;
55007;SDS011;40902;45.116;21.296;2023-12-29T01:32:13;21.70;;;14.82;;
55007;SDS011;40902;45.116;21.296;2023-12-29T01:34:39;22.92;;;17.58;;
55007;SDS011;40902;45.116;21.296;2023-12-29T01:37:05;27.25;;;16.30;;
55007;SDS011;40902;45.116;21.296;2023-12-29T01:39:31;24.05;;;15.82;;
55007;SDS011;40902;45.116;21.296;2023-12-29T01:41:58;25.63;;;16.85;;
55007;SDS011;40902;45.116;21.296;2023-12-29T01:44:24;25.85;;;17.27;;
55007;SDS011;40902;45.116;21.296;2023-12-29T01:46:50;26.02;;;18.23;;
55007;SDS011;40902;45.116;21.296;2023-12-29T01:49:19;26.02;;;19.08;;
55007;SDS011;40902;45.116;21.296;2023-12-29T01:51:49;30.67;;;20.92;;
55007;SDS011;40902;45.116;21.296;2023-12-29T01:54:17;29.77;;;22.25;;
55007;SDS011;40902;45.116;21.296;2023-12-29T01:56:45;36.25;;;23.48;;
55007;SDS011;40902;45.116;21.296;2023-12-29T01:59:13;35.15;;;22.60;;
55007;SDS011;40902;45.116;21.296;2023-12-29T02:01:39;33.10;;;24.48;;
55007;SDS011;40902;45.116;21.296;2023-12-29T02:04:06;31.10;;;22.98;;
55007;SDS011;40902;45.116;21.296;2023-12-29T02:06:33;32.65;;;24.00;;
55007;SDS011;40902;45.116;21.296;2023-12-29T02:09:01;36.60;;;26.08;;
55007;SDS011;40902;45.116;21.296;2023-12-29T02:11:28;39.17;;;27.92;;
55007;SDS011;40902;45.116;21.296;2023-12-29T02:13:55;38.40;;;26.83;;
55007;SDS011;40902;45.116;21.296;2023-12-29T02:16:22;38.00;;;27.63;;
55007;SDS011;40902;45.116;21.296;2023-12-29T02:19:07;37.83;;;25.70;;
55007;SDS011;40902;45.116;21.296;2023-12-29T02:21:45;38.85;;;27.23;;
55007;SDS011;40902;45.116;21.296;2023-12-29T02:24:11;37.42;;;27.30;;
55007;SDS011;40902;45.116;21.296;2023-12-29T02:26:37;39.42;;;26.73;;
55007;SDS011;40902;45.116;21.296;2023-12-29T02:29:04;40.72;;;28.98;;
55007;SDS011;40902;45.116;21.296;2023-12-29T02:31:33;39.75;;;28.90;;
55007;SDS011;40902;45.116;21.296;2023-12-29T02:34:03;43.22;;;31.42;;
55007;SDS011;40902;45.116;21.296;2023-12-29T02:36:32;41.58;;;31.10;;
55007;SDS011;40902;45.116;21.296;2023-12-29T02:38:59;41.85;;;28.67;;
55007;SDS011;40902;45.116;21.296;2023-12-29T02:41:25;41.08;;;29.60;;
55007;SDS011;40902;45.116;21.296;2023-12-29T02:43:51;42.22;;;29.30;;
55007;SDS011;40902;45.116;21.296;2023-12-29T02:46:16;43.05;;;29.67;;
55007;SDS011;40902;45.116;21.296;2023-12-29T02:48:42;42.67;;;30.60;;
55007;SDS011;40902;45.116;21.296;2023-12-29T02:51:08;40.95;;;28.92;;
55007;SDS011;40902;45.116;21.296;2023-12-29T02:53:34;43.92;;;31.15;;
55007;SDS011;40902;45.116;21.296;2023-12-29T02:56:00;42.05;;;30.80;;
55007;SDS011;40902;45.116;21.296;2023-12-29T02:58:25;42.90;;;32.17;;
55007;SDS011;40902;45.116;21.296;2023-12-29T03:00:51;41.55;;;30.48;;
55007;SDS011;40902;45.116;21.296;2023-12-29T03:03:17;46.42;;;29.98;;
55007;SDS011;40902;45.116;21.296;2023-12-29T03:05:42;45.80;;;31.23;;
55007;SDS011;40902;45.116;21.296;2023-12-29T03:08:08;46.42;;;30.52;;
55007;SDS011;40902;45.116;21.296;2023-12-29T03:10:34;45.78;;;30.90;;
55007;SDS011;40902;45.116;21.296;2023-12-29T03:13:00;40.00;;;30.10;;
55007;SDS011;40902;45.116;21.296;2023-12-29T03:15:25;48.05;;;31.13;;
55007;SDS011;40902;45.116;21.296;2023-12-29T03:17:51;45.50;;;33.90;;
55007;SDS011;40902;45.116;21.296;2023-12-29T03:20:17;43.17;;;31.20;;
55007;SDS011;40902;45.116;21.296;2023-12-29T03:22:43;46.17;;;31.50;;
55007;SDS011;40902;45.116;21.296;2023-12-29T03:25:08;43.00;;;31.08;;
55007;SDS011;40902;45.116;21.296;2023-12-29T03:27:34;46.35;;;31.38;;
55007;SDS011;40902;45.116;21.296;2023-12-29T03:30:00;46.30;;;33.42;;
55007;SDS011;40902;45.116;21.296;2023-12-29T03:32:25;50.75;;;36.95;;
55007;SDS011;40902;45.116;21.296;2023-12-29T03:34:51;58.47;;;39.72;;
55007;SDS011;40902;45.116;21.296;2023-12-29T03:37:17;55.08;;;38.97;;
55007;SDS011;40902;45.116;21.296;2023-12-29T03:39:43;61.08;;;40.90;;
55007;SDS011;40902;45.116;21.296;2023-12-29T03:42:09;63.60;;;41.53;;
55007;SDS011;40902;45.116;21.296;2023-12-29T03:44:34;56.92;;;40.95;;
55007;SDS011;40902;45.116;21.296;2023-12-29T03:47:00;64.80;;;45.42;;
55007;SDS011;40902;45.116;21.296;2023-12-29T03:49:26;62.13;;;42.75;;
55007;SDS011;40902;45.116;21.296;2023-12-29T03:51:52;57.70;;;43.10;;
55007;SDS011;40902;45.116;21.296;2023-12-29T03:54:17;63.80;;;43.97;;
55007;SDS011;40902;45.116;21.296;2023-12-29T03:56:44;59.78;;;42.90;;
55007;SDS011;40902;45.116;21.296;2023-12-29T03:59:11;58.33;;;43.70;;
55007;SDS011;40902;45.116;21.296;2023-12-29T04:01:36;61.83;;;44.05;;
55007;SDS011;40902;45.116;21.296;2023-12-29T04:04:02;64.63;;;46.10;;
55007;SDS011;40902;45.116;21.296;2023-12-29T04:06:28;66.68;;;45.53;;
55007;SDS011;40902;45.116;21.296;2023-12-29T04:08:54;60.55;;;44.67;;
55007;SDS011;40902;45.116;21.296;2023-12-29T04:11:20;67.03;;;45.55;;
55007;SDS011;40902;45.116;21.296;2023-12-29T04:13:46;68.43;;;47.03;;
55007;SDS011;40902;45.116;21.296;2023-12-29T04:16:11;63.35;;;47.38;;
55007;SDS011;40902;45.116;21.296;2023-12-29T04:18:37;67.57;;;45.78;;
55007;SDS011;40902;45.116;21.296;2023-12-29T04:21:03;64.68;;;45.80;;
55007;SDS011;40902;45.116;21.296;2023-12-29T04:23:29;56.95;;;40.30;;
55007;SDS011;40902;45.116;21.296;2023-12-29T04:25:54;62.63;;;44.20;;
55007;SDS011;40902;45.116;21.296;2023-12-29T04:28:21;63.00;;;44.40;;
55007;SDS011;40902;45.116;21.296;2023-12-29T04:30:46;62.78;;;44.53;;
55007;SDS011;40902;45.116;21.296;2023-12-29T04:33:12;59.55;;;41.60;;
55007;SDS011;40902;45.116;21.296;2023-12-29T04:35:38;58.88;;;43.92;;
55007;SDS011;40902;45.116;21.296;2023-12-29T04:38:04;63.53;;;44.47;;
55007;SDS011;40902;45.116;21.296;2023-12-29T04:40:31;58.15;;;42.72;;
55007;SDS011;40902;45.116;21.296;2023-12-29T04:42:57;57.00;;;42.97;;
55007;SDS011;40902;45.116;21.296;2023-12-29T04:45:23;54.55;;;39.95;;
55007;SDS011;40902;45.116;21.296;2023-12-29T04:47:48;55.17;;;39.28;;
55007;SDS011;40902;45.116;21.296;2023-12-29T04:50:14;54.05;;;39.38;;
55007;SDS011;40902;45.116;21.296;2023-12-29T04:52:40;56.75;;;39.60;;
55007;SDS011;40902;45.116;21.296;2023-12-29T04:55:06;53.60;;;40.10;;
55007;SDS011;40902;45.116;21.296;2023-12-29T04:57:32;58.67;;;39.40;;
55007;SDS011;40902;45.116;21.296;2023-12-29T04:59:58;55.63;;;39.17;;
55007;SDS011;40902;45.116;21.296;2023-12-29T05:02:23;54.78;;;38.65;;
55007;SDS011;40902;45.116;21.296;2023-12-29T05:04:49;54.30;;;38.22;;
55007;SDS011;40902;45.116;21.296;2023-12-29T05:07:15;55.83;;;38.63;;
55007;SDS011;40902;45.116;21.296;2023-12-29T05:09:40;56.17;;;40.40;;
55007;SDS011;40902;45.116;21.296;2023-12-29T05:12:06;53.90;;;38.13;;
55007;SDS011;40902;45.116;21.296;2023-12-29T05:14:32;50.90;;;37.03;;
55007;SDS011;40902;45.116;21.296;2023-12-29T05:16:57;56.60;;;40.35;;
55007;SDS011;40902;45.116;21.296;2023-12-29T05:19:23;59.22;;;42.17;;
55007;SDS011;40902;45.116;21.296;2023-12-29T05:21:49;58.88;;;41.97;;
55007;SDS011;40902;45.116;21.296;2023-12-29T05:24:16;57.72;;;42.20;;
55007;SDS011;40902;45.116;21.296;2023-12-29T05:26:42;58.53;;;42.30;;
55007;SDS011;40902;45.116;21.296;2023-12-29T05:29:08;58.38;;;40.88;;
55007;SDS011;40902;45.116;21.296;2023-12-29T05:31:34;55.80;;;39.85;;
55007;SDS011;40902;45.116;21.296;2023-12-29T05:33:59;56.47;;;39.28;;
55007;SDS011;40902;45.116;21.296;2023-12-29T05:36:25;58.55;;;40.35;;
55007;SDS011;40902;45.116;21.296;2023-12-29T05:38:51;54.63;;;39.17;;
55007;SDS011;40902;45.116;21.296;2023-12-29T05:41:17;54.55;;;40.13;;
55007;SDS011;40902;45.116;21.296;2023-12-29T05:43:44;54.50;;;38.72;;
55007;SDS011;40902;45.116;21.296;2023-12-29T05:46:10;52.13;;;39.63;;
55007;SDS011;40902;45.116;21.296;2023-12-29T05:48:39;52.22;;;38.38;;
55007;SDS011;40902;45.116;21.296;2023-12-29T05:51:12;56.00;;;38.30;;
55007;SDS011;40902;45.116;21.296;2023-12-29T05:53:41;53.10;;;38.00;;
55007;SDS011;40902;45.116;21.296;2023-12-29T05:56:07;55.13;;;38.58;;
55007;SDS011;40902;45.116;21.296;2023-12-29T05:58:34;52.97;;;38.17;;
55007;SDS011;40902;45.116;21.296;2023-12-29T06:01:00;49.40;;;37.25;;
55007;SDS011;40902;45.116;21.296;2023-12-29T06:03:26;51.50;;;37.15;;
55007;SDS011;40902;45.116;21.296;2023-12-29T06:05:52;49.58;;;37.05;;
55007;SDS011;40902;45.116;21.296;2023-12-29T06:08:19;57.00;;;37.50;;
55007;SDS011;40902;45.116;21.296;2023-12-29T06:10:44;45.22;;;34.80;;
55007;SDS011;40902;45.116;21.296;2023-12-29T06:13:10;52.65;;;35.38;;
55007;SDS011;40902;45.116;21.296;2023-12-29T06:15:36;51.15;;;36.20;;
55007;SDS011;40902;45.116;21.296;2023-12-29T06:18:02;50.63;;;35.17;;
55007;SDS011;40902;45.116;21.296;2023-12-29T06:20:28;49.83;;;35.55;;
55007;SDS011;40902;45.116;21.296;2023-12-29T06:22:54;48.05;;;34.78;;
55007;SDS011;40902;45.116;21.296;2023-12-29T06:25:20;48.65;;;34.88;;
55007;SDS011;40902;45.116;21.296;2023-12-29T06:27:46;48.10;;;35.55;;
55007;SDS011;40902;45.116;21.296;2023-12-29T06:30:13;48.25;;;35.03;;
55007;SDS011;40902;45.116;21.296;2023-12-29T06:32:39;47.20;;;33.35;;
55007;SDS011;40902;45.116;21.296;2023-12-29T06:35:05;52.38;;;35.22;;
55007;SDS011;40902;45.116;21.296;2023-12-29T06:37:32;50.55;;;35.67;;
55007;SDS011;40902;45.116;21.296;2023-12-29T06:39:58;45.85;;;35.05;;
55007;SDS011;40902;45.116;21.296;2023-12-29T06:42:24;51.03;;;36.63;;
55007;SDS011;40902;45.116;21.296;2023-12-29T06:44:49;44.63;;;33.78;;
55007;SDS011;40902;45.116;21.296;2023-12-29T06:47:15;45.80;;;33.42;;
55007;SDS011;40902;45.116;21.296;2023-12-29T06:49:41;47.22;;;33.85;;
55007;SDS011;40902;45.116;21.296;2023-12-29T06:52:07;44.70;;;31.58;;
55007;SDS011;40902;45.116;21.296;2023-12-29T06:54:33;48.17;;;31.25;;
55007;SDS011;40902;45.116;21.296;2023-12-29T06:56:59;44.63;;;32.10;;
55007;SDS011;40902;45.116;21.296;2023-12-29T06:59:25;49.42;;;32.33;;
55007;SDS011;40902;45.116;21.296;2023-12-29T07:01:50;49.47;;;32.20;;
55007;SDS011;40902;45.116;21.296;2023-12-29T07:04:16;46.63;;;32.40;;
55007;SDS011;40902;45.116;21.296;2023-12-29T07:06:42;49.97;;;34.58;;
55007;SDS011;40902;45.116;21.296;2023-12-29T07:09:08;45.72;;;32.88;;
55007;SDS011;40902;45.116;21.296;2023-12-29T07:11:34;50.88;;;34.15;;
55007;SDS011;40902;45.116;21.296;2023-12-29T07:14:00;48.08;;;33.95;;
55007;SDS011;40902;45.116;21.296;2023-12-29T07:16:27;45.60;;;34.17;;
55007;SDS011;40902;45.116;21.296;2023-12-29T07:18:52;50.20;;;34.80;;
55007;SDS011;40902;45.116;21.296;2023-12-29T07:21:18;49.28;;;35.60;;
55007;SDS011;40902;45.116;21.296;2023-12-29T07:23:44;51.83;;;35.03;;
55007;SDS011;40902;45.116;21.296;2023-12-29T07:26:10;50.75;;;35.00;;
55007;SDS011;40902;45.116;21.296;2023-12-29T07:28:36;48.47;;;35.03;;
55007;SDS011;40902;45.116;21.296;2023-12-29T07:31:02;45.10;;;33.85;;
55007;SDS011;40902;45.116;21.296;2023-12-29T07:33:28;47.42;;;34.25;;
55007;SDS011;40902;45.116;21.296;2023-12-29T07:35:54;49.75;;;32.60;;
55007;SDS011;40902;45.116;21.296;2023-12-29T07:38:20;44.58;;;33.38;;
55007;SDS011;40902;45.116;21.296;2023-12-29T07:40:45;47.30;;;33.35;;
55007;SDS011;40902;45.116;21.296;2023-12-29T07:43:13;50.55;;;34.88;;
55007;SDS011;40902;45.116;21.296;2023-12-29T07:45:39;53.20;;;37.20;;
55007;SDS011;40902;45.116;21.296;2023-12-29T07:48:04;51.47;;;36.17;;
55007;SDS011;40902;45.116;21.296;2023-12-29T07:50:31;48.08;;;35.15;;
55007;SDS011;40902;45.116;21.296;2023-12-29T07:52:56;48.40;;;34.53;;
55007;SDS011;40902;45.116;21.296;2023-12-29T07:55:22;49.97;;;34.28;;
55007;SDS011;40902;45.116;21.296;2023-12-29T07:57:48;49.85;;;33.03;;
55007;SDS011;40902;45.116;21.296;2023-12-29T08:00:14;47.08;;;32.25;;
55007;SDS011;40902;45.116;21.296;2023-12-29T08:02:40;44.95;;;32.80;;
55007;SDS011;40902;45.116;21.296;2023-12-29T08:05:06;43.83;;;34.05;;
55007;SDS011;40902;45.116;21.296;2023-12-29T08:07:35;47.75;;;33.75;;
55007;SDS011;40902;45.116;21.296;2023-12-29T08:10:03;48.83;;;35.13;;
55007;SDS011;40902;45.116;21.296;2023-12-29T08:12:32;47.55;;;34.47;;
55007;SDS011;40902;45.116;21.296;2023-12-29T08:14:59;50.88;;;35.90;;
55007;SDS011;40902;45.116;21.296;2023-12-29T08:17:25;50.70;;;34.92;;
55007;SDS011;40902;45.116;21.296;2023-12-29T08:19:52;51.88;;;35.13;;
55007;SDS011;40902;45.116;21.296;2023-12-29T08:22:19;48.05;;;35.13;;
55007;SDS011;40902;45.116;21.296;2023-12-29T08:24:44;47.10;;;33.92;;
55007;SDS011;40902;45.116;21.296;2023-12-29T08:27:13;43.30;;;32.65;;
55007;SDS011;40902;45.116;21.296;2023-12-29T08:29:42;46.95;;;34.75;;
55007;SDS011;40902;45.116;21.296;2023-12-29T08:32:11;50.35;;;35.17;;
55007;SDS011;40902;45.116;21.296;2023-12-29T08:34:37;49.92;;;36.10;;
55007;SDS011;40902;45.116;21.296;2023-12-29T08:37:03;47.45;;;35.58;;
55007;SDS011;40902;45.116;21.296;2023-12-29T08:39:29;48.72;;;34.45;;
55007;SDS011;40902;45.116;21.296;2023-12-29T08:41:54;48.53;;;33.78;;
55007;SDS011;40902;45.116;21.296;2023-12-29T08:44:20;50.05;;;35.28;;
55007;SDS011;40902;45.116;21.296;2023-12-29T08:46:46;48.92;;;34.70;;
55007;SDS011;40902;45.116;21.296;2023-12-29T08:49:12;47.65;;;34.75;;
55007;SDS011;40902;45.116;21.296;2023-12-29T08:51:38;68.50;;;45.50;;
55007;SDS011;40902;45.116;21.296;2023-12-29T08:54:03;52.05;;;38.25;;
55007;SDS011;40902;45.116;21.296;2023-12-29T08:56:30;48.58;;;35.38;;
55007;SDS011;40902;45.116;21.296;2023-12-29T08:58:55;50.42;;;35.10;;
55007;SDS011;40902;45.116;21.296;2023-12-29T09:01:21;46.42;;;33.20;;
55007;SDS011;40902;45.116;21.296;2023-12-29T09:03:47;45.92;;;33.97;;
55007;SDS011;40902;45.116;21.296;2023-12-29T09:06:13;45.25;;;35.03;;
55007;SDS011;40902;45.116;21.296;2023-12-29T09:08:39;45.47;;;32.90;;
55007;SDS011;40902;45.116;21.296;2023-12-29T09:11:05;50.13;;;33.50;;
55007;SDS011;40902;45.116;21.296;2023-12-29T09:13:31;46.28;;;33.08;;
55007;SDS011;40902;45.116;21.296;2023-12-29T09:15:58;43.15;;;32.78;;
55007;SDS011;40902;45.116;21.296;2023-12-29T09:18:24;44.67;;;32.00;;
55007;SDS011;40902;45.116;21.296;2023-12-29T09:20:50;45.10;;;31.88;;
55007;SDS011;40902;45.116;21.296;2023-12-29T09:23:16;46.78;;;32.58;;
55007;SDS011;40902;45.116;21.296;2023-12-29T09:25:42;46.75;;;32.58;;
55007;SDS011;40902;45.116;21.296;2023-12-29T09:28:07;45.00;;;33.33;;
55007;SDS011;40902;45.116;21.296;2023-12-29T09:30:33;48.40;;;31.85;;
55007;SDS011;40902;45.116;21.296;2023-12-29T09:32:59;41.13;;;31.02;;
55007;SDS011;40902;45.116;21.296;2023-12-29T09:35:25;43.95;;;31.23;;
55007;SDS011;40902;45.116;21.296;2023-12-29T09:37:51;41.15;;;29.23;;
55007;SDS011;40902;45.116;21.296;2023-12-29T09:40:17;40.95;;;30.42;;
55007;SDS011;40902;45.116;21.296;2023-12-29T09:42:43;41.92;;;30.33;;
55007;SDS011;40902;45.116;21.296;2023-12-29T09:45:12;42.50;;;31.02;;
55007;SDS011;40902;45.116;21.296;2023-12-29T09:47:42;41.25;;;29.50;;
55007;SDS011;40902;45.116;21.296;2023-12-29T09:50:12;43.90;;;30.25;;
55007;SDS011;40902;45.116;21.296;2023-12-29T09:52:38;55.58;;;38.45;;
55007;SDS011;40902;45.116;21.296;2023-12-29T09:55:06;46.90;;;34.70;;
55007;SDS011;40902;45.116;21.296;2023-12-29T09:57:37;42.78;;;30.63;;
55007;SDS011;40902;45.116;21.296;2023-12-29T10:00:03;38.42;;;29.58;;
55007;SDS011;40902;45.116;21.296;2023-12-29T10:02:30;47.15;;;30.95;;
55007;SDS011;40902;45.116;21.296;2023-12-29T10:04:57;46.05;;;30.38;;
55007;SDS011;40902;45.116;21.296;2023-12-29T10:07:26;40.15;;;28.55;;
55007;SDS011;40902;45.116;21.296;2023-12-29T10:09:56;40.15;;;28.90;;
55007;SDS011;40902;45.116;21.296;2023-12-29T10:12:23;41.58;;;29.15;;
55007;SDS011;40902;45.116;21.296;2023-12-29T10:14:56;45.72;;;31.63;;
55007;SDS011;40902;45.116;21.296;2023-12-29T10:17:44;39.85;;;29.55;;
55007;SDS011;40902;45.116;21.296;2023-12-29T10:22:46;48.22;;;30.90;;
55007;SDS011;40902;45.116;21.296;2023-12-29T10:25:33;44.97;;;30.35;;
55007;SDS011;40902;45.116;21.296;2023-12-29T10:28:00;39.92;;;29.05;;
55007;SDS011;40902;45.116;21.296;2023-12-29T10:30:26;38.72;;;26.73;;
55007;SDS011;40902;45.116;21.296;2023-12-29T10:32:52;39.55;;;27.42;;
55007;SDS011;40902;45.116;21.296;2023-12-29T10:35:17;41.28;;;28.77;;
55007;SDS011;40902;45.116;21.296;2023-12-29T10:37:44;36.70;;;27.80;;
55007;SDS011;40902;45.116;21.296;2023-12-29T10:40:16;44.00;;;27.05;;
55007;SDS011;40902;45.116;21.296;2023-12-29T10:42:54;47.93;;;35.60;;
55007;SDS011;40902;45.116;21.296;2023-12-29T10:45:22;42.72;;;29.00;;
55007;SDS011;40902;45.116;21.296;2023-12-29T10:47:49;36.85;;;26.75;;
55007;SDS011;40902;45.116;21.296;2023-12-29T10:50:16;35.97;;;26.08;;
55007;SDS011;40902;45.116;21.296;2023-12-29T10:52:41;38.42;;;24.88;;
55007;SDS011;40902;45.116;21.296;2023-12-29T10:55:10;36.95;;;25.75;;
55007;SDS011;40902;45.116;21.296;2023-12-29T10:57:37;33.78;;;25.40;;
55007;SDS011;40902;45.116;21.296;2023-12-29T11:00:04;37.05;;;25.90;;
55007;SDS011;40902;45.116;21.296;2023-12-29T11:02:32;40.33;;;27.60;;
55007;SDS011;40902;45.116;21.296;2023-12-29T11:05:05;40.78;;;26.58;;
55007;SDS011;40902;45.116;21.296;2023-12-29T11:07:36;41.28;;;28.52;;
55007;SDS011;40902;45.116;21.296;2023-12-29T11:12:33;36.20;;;25.60;;
55007;SDS011;40902;45.116;21.296;2023-12-29T11:15:04;33.78;;;24.42;;
55007;SDS011;40902;45.116;21.296;2023-12-29T11:17:31;37.72;;;26.10;;
55007;SDS011;40902;45.116;21.296;2023-12-29T11:19:59;35.72;;;24.25;;
55007;SDS011;40902;45.116;21.296;2023-12-29T11:22:29;37.53;;;25.75;;
55007;SDS011;40902;45.116;21.296;2023-12-29T11:24:56;36.58;;;24.40;;
55007;SDS011;40902;45.116;21.296;2023-12-29T11:27:28;31.15;;;23.40;;
55007;SDS011;40902;45.116;21.296;2023-12-29T11:29:58;37.35;;;24.35;;
55007;SDS011;40902;45.116;21.296;2023-12-29T11:32:27;37.25;;;24.60;;
55007;SDS011;40902;45.116;21.296;2023-12-29T11:35:15;35.47;;;23.80;;
55007;SDS011;40902;45.116;21.296;2023-12-29T11:40:44;32.38;;;22.65;;
55007;SDS011;40902;45.116;21.296;2023-12-29T11:43:15;30.27;;;21.92;;
55007;SDS011;40902;45.116;21.296;2023-12-29T11:45:42;28.70;;;21.17;;
55007;SDS011;40902;45.116;21.296;2023-12-29T11:48:09;28.08;;;21.13;;
55007;SDS011;40902;45.116;21.296;2023-12-29T11:50:37;33.42;;;21.13;;
55007;SDS011;40902;45.116;21.296;2023-12-29T11:53:05;27.45;;;19.83;;
55007;SDS011;40902;45.116;21.296;2023-12-29T11:55:36;24.75;;;19.60;;
55007;SDS011;40902;45.116;21.296;2023-12-29T11:58:02;24.98;;;18.50;;
55007;SDS011;40902;45.116;21.296;2023-12-29T12:00:47;23.05;;;19.23;;
55007;SDS011;40902;45.116;21.296;2023-12-29T12:03:19;26.98;;;17.77;;
55007;SDS011;40902;45.116;21.296;2023-12-29T12:05:52;20.10;;;17.25;;
55007;SDS011;40902;45.116;21.296;2023-12-29T12:08:28;21.95;;;16.27;;
55007;SDS011;40902;45.116;21.296;2023-12-29T12:10:55;28.17;;;17.30;;
55007;SDS011;40902;45.116;21.296;2023-12-29T12:16:46;22.38;;;17.05;;
55007;SDS011;40902;45.116;21.296;2023-12-29T12:19:08;20.15;;;17.23;;
55007;SDS011;40902;45.116;21.296;2023-12-29T12:21:34;25.63;;;16.67;;
55007;SDS011;40902;45.116;21.296;2023-12-29T12:24:03;23.70;;;17.98;;
55007;SDS011;40902;45.116;21.296;2023-12-29T12:26:30;25.92;;;19.55;;
55007;SDS011;40902;45.116;21.296;2023-12-29T12:28:57;28.10;;;20.02;;
55007;SDS011;40902;45.116;21.296;2023-12-29T12:31:25;24.73;;;18.52;;
55007;SDS011;40902;45.116;21.296;2023-12-29T12:33:55;22.83;;;17.40;;
55007;SDS011;40902;45.116;21.296;2023-12-29T12:36:21;24.88;;;17.75;;
55007;SDS011;40902;45.116;21.296;2023-12-29T12:38:51;23.10;;;18.45;;
55007;SDS011;40902;45.116;21.296;2023-12-29T12:41:17;26.35;;;18.05;;
55007;SDS011;40902;45.116;21.296;2023-12-29T12:43:45;30.20;;;18.83;;
55007;SDS011;40902;45.116;21.296;2023-12-29T12:46:39;26.38;;;19.20;;
55007;SDS011;40902;45.116;21.296;2023-12-29T12:49:22;27.90;;;20.08;;
55007;SDS011;40902;45.116;21.296;2023-12-29T12:51:48;24.08;;;18.67;;
55007;SDS011;40902;45.116;21.296;2023-12-29T12:54:17;24.75;;;19.83;;
55007;SDS011;40902;45.116;21.296;2023-12-29T12:56:44;26.45;;;19.35;;
55007;SDS011;40902;45.116;21.296;2023-12-29T12:59:11;28.77;;;20.02;;
55007;SDS011;40902;45.116;21.296;2023-12-29T13:01:37;28.17;;;20.67;;
55007;SDS011;40902;45.116;21.296;2023-12-29T13:04:04;27.20;;;21.70;;
55007;SDS011;40902;45.116;21.296;2023-12-29T13:06:31;26.42;;;21.17;;
55007;SDS011;40902;45.116;21.296;2023-12-29T13:08:58;30.38;;;20.73;;
55007;SDS011;40902;45.116;21.296;2023-12-29T13:11:30;28.67;;;20.70;;
55007;SDS011;40902;45.116;21.296;2023-12-29T13:13:55;29.75;;;22.10;;
55007;SDS011;40902;45.116;21.296;2023-12-29T13:16:44;33.13;;;23.33;;
55007;SDS011;40902;45.116;21.296;2023-12-29T13:21:42;29.33;;;22.48;;
55007;SDS011;40902;45.116;21.296;2023-12-29T13:24:10;34.25;;;23.67;;
55007;SDS011;40902;45.116;21.296;2023-12-29T13:26:36;32.92;;;23.77;;
55007;SDS011;40902;45.116;21.296;2023-12-29T13:29:02;32.65;;;25.02;;
55007;SDS011;40902;45.116;21.296;2023-12-29T13:31:28;36.45;;;25.77;;
55007;SDS011;40902;45.116;21.296;2023-12-29T13:33:58;35.05;;;25.70;;
55007;SDS011;40902;45.116;21.296;2023-12-29T13:36:35;37.22;;;26.45;;
55007;SDS011;40902;45.116;21.296;2023-12-29T13:39:07;37.70;;;26.88;;
55007;SDS011;40902;45.116;21.296;2023-12-29T13:42:00;39.03;;;28.20;;
55007;SDS011;40902;45.116;21.296;2023-12-29T13:44:28;47.35;;;33.28;;
55007;SDS011;40902;45.116;21.296;2023-12-29T13:46:54;38.33;;;27.70;;
55007;SDS011;40902;45.116;21.296;2023-12-29T13:49:22;71.03;;;52.65;;
55007;SDS011;40902;45.116;21.296;2023-12-29T13:51:48;42.15;;;29.25;;
55007;SDS011;40902;45.116;21.296;2023-12-29T13:54:14;36.83;;;27.42;;
55007;SDS011;40902;45.116;21.296;2023-12-29T13:56:50;36.03;;;23.90;;
55007;SDS011;40902;45.116;21.296;2023-12-29T13:59:16;32.08;;;24.13;;
55007;SDS011;40902;45.116;21.296;2023-12-29T14:01:42;97.22;;;78.70;;
55007;SDS011;40902;45.116;21.296;2023-12-29T14:04:08;39.42;;;29.38;;
55007;SDS011;40902;45.116;21.296;2023-12-29T14:09:20;43.08;;;34.05;;
55007;SDS011;40902;45.116;21.296;2023-12-29T14:11:47;36.95;;;26.52;;
55007;SDS011;40902;45.116;21.296;2023-12-29T14:14:14;34.80;;;27.27;;
55007;SDS011;40902;45.116;21.296;2023-12-29T14:16:46;39.60;;;28.95;;
55007;SDS011;40902;45.116;21.296;2023-12-29T14:19:12;28.10;;;21.08;;
55007;SDS011;40902;45.116;21.296;2023-12-29T14:21:37;29.77;;;22.13;;
55007;SDS011;40902;45.116;21.296;2023-12-29T14:24:12;30.25;;;22.83;;
55007;SDS011;40902;45.116;21.296;2023-12-29T14:29:17;36.83;;;28.65;;